KGXY

Greeley-Weld County Airport

Greeley, Colorado, USA
METAR KGXY 171556Z AUTO VRB04KT 10SM CLR 21/14 A3025 RMK AO2 SLP206 T02110139
Observed Flight Rules
Aug-17 @ 15:56 UTC (56 minutes ago) Visual Flight Rules
Wind Visibility Clouds
Variable at 4 knots 10 miles
  • Clear skies
Temperatures Readings
Current 21°C / 70°F
Dewpoint 14°C / 57°F
Humidity 64%
Altimeter 30.25" Hg
Pressure 1020.6 hPa
Elevation 1420
METAR KGXY 171556Z AUTO VRB04KT 10SM CLR 21/14 A3025 RMK AO2 SLP206 T02110139
Observed Flight Rules
Aug-17 @ 15:56 UTC
(56 minutes ago)
VFR
Wind Visibility
Variable at 4 knots 10 miles
Clouds
  • Clear skies
Temperature Dewpoint
21°C / 70°F 14°C / 57°F
Humidity Altimeter Pressure
64% 30.25" Hg 1020.6 hPa